Time;durP1;ratioP1;P1;durP2;ratioP2;P2;SDS_P1;SDS_P2;PMS_P1;PMS_P2;Temp;Humidity;BMP_temperature;BMP_pressure;BME280_temperature;BME280_humidity;BME280_pressure;Samples;Min_cycle;Max_cycle;Signal;HPM_P1;HPM_P2
2024/03/11 00:00:17;;;;;;;16.07;12.20;;;;;;;9.56;73.99;93419.94;523179;28;777;-70
2024/03/11 00:00:33;;;;;;;14.90;12.00;;;;;;;9.59;73.79;93418.88;523210;28;824;-70
2024/03/11 00:00:48;;;;;;;15.40;12.23;;;;;;;9.61;73.88;93416.31;523129;28;753;-70
2024/03/11 00:01:04;;;;;;;15.00;12.47;;;;;;;9.60;73.62;93423.09;523245;28;780;-70
2024/03/11 00:01:20;;;;;;;15.07;12.02;;;;;;;9.63;73.44;93419.25;523192;28;797;-70
2024/03/11 00:01:38;;;;;;;17.17;12.02;;;;;;;9.65;73.42;93416.69;523201;28;757;-69
2024/03/11 00:01:54;;;;;;;18.00;12.00;;;;;;;9.65;73.64;93413.94;523196;28;883;-69
2024/03/11 00:02:09;;;;;;;15.60;11.95;;;;;;;9.65;73.33;93422.22;523170;28;909;-69
2024/03/11 00:02:27;;;;;;;15.48;12.55;;;;;;;9.63;73.33;93413.75;523217;28;903;-69
2024/03/11 00:02:42;;;;;;;15.10;12.65;;;;;;;9.63;73.68;93422.00;523235;28;816;-69
2024/03/11 00:02:58;;;;;;;16.40;12.50;;;;;;;9.64;73.54;93420.72;523173;28;789;-69
2024/03/11 00:03:13;;;;;;;17.75;12.48;;;;;;;9.61;73.79;93416.31;522956;28;789;-69
2024/03/11 00:03:29;;;;;;;17.43;12.70;;;;;;;9.57;73.44;93413.88;522947;28;827;-69
2024/03/11 00:03:44;;;;;;;16.17;12.80;;;;;;;9.62;73.68;93418.50;523070;28;895;-69
2024/03/11 00:04:01;;;;;;;16.30;12.53;;;;;;;9.59;73.63;93424.38;523064;28;792;-69
2024/03/11 00:04:17;;;;;;;14.75;11.98;;;;;;;9.59;73.70;93421.63;522993;28;958;-70
2024/03/11 00:04:34;;;;;;;13.77;12.05;;;;;;;9.60;73.88;93418.31;523136;28;800;-70
2024/03/11 00:04:50;;;;;;;14.45;12.00;;;;;;;9.62;73.82;93413.00;522991;28;820;-69
2024/03/11 00:05:07;;;;;;;14.27;11.90;;;;;;;9.64;73.70;93417.97;523126;28;816;-70
2024/03/11 00:05:22;;;;;;;14.98;12.05;;;;;;;9.62;73.45;93407.50;523216;28;907;-69
2024/03/11 00:05:38;;;;;;;16.63;12.27;;;;;;;9.62;73.42;93410.25;523219;28;772;-70
2024/03/11 00:05:54;;;;;;;18.80;12.30;;;;;;;9.64;73.78;93412.44;523225;28;813;-70
2024/03/11 00:06:09;;;;;;;17.37;12.70;;;;;;;9.66;73.42;93413.38;523204;28;860;-70
2024/03/11 00:06:25;;;;;;;15.05;12.60;;;;;;;9.68;73.65;93412.88;523245;28;851;-70
2024/03/11 00:06:40;;;;;;;15.90;12.17;;;;;;;9.68;73.61;93419.09;523145;28;836;-70
2024/03/11 00:06:57;;;;;;;15.55;12.30;;;;;;;9.69;73.29;93417.81;523198;28;746;-70
2024/03/11 00:07:15;;;;;;;14.95;12.77;;;;;;;9.71;73.54;93417.28;523197;28;835;-70
2024/03/11 00:07:34;;;;;;;14.73;12.60;;;;;;;9.72;73.22;93424.28;523203;28;848;-70
2024/03/11 00:07:50;;;;;;;13.70;11.48;;;;;;;9.67;73.29;93422.41;522843;28;821;-70
2024/03/11 00:08:09;;;;;;;14.33;11.37;;;;;;;9.66;73.30;93426.44;522897;28;1906;-70
2024/03/11 00:08:25;;;;;;;15.38;11.82;;;;;;;9.65;73.20;93424.97;523012;28;1055;-69
2024/03/11 00:08:41;;;;;;;14.95;11.57;;;;;;;9.63;73.28;93422.75;522998;28;1106;-69
2024/03/11 00:08:57;;;;;;;15.18;11.85;;;;;;;9.61;73.26;93427.34;523097;28;796;-69
2024/03/11 00:09:19;;;;;;;14.97;12.33;;;;;;;9.61;73.20;93425.31;523020;28;756;-70
2024/03/11 00:09:44;;;;;;;17.67;12.85;;;;;;;9.59;73.54;93427.16;523088;28;848;-69
2024/03/11 00:10:00;;;;;;;16.80;12.88;;;;;;;9.60;73.52;93428.59;523096;28;824;-70
2024/03/11 00:10:16;;;;;;;16.27;12.55;;;;;;;9.62;73.63;93423.28;523166;28;835;-70
2024/03/11 00:10:33;;;;;;;15.87;12.43;;;;;;;9.63;73.22;93431.03;522995;28;824;-69
2024/03/11 00:10:55;;;;;;;15.45;12.15;;;;;;;9.65;73.53;93436.00;523055;28;816;-70
2024/03/11 00:11:11;;;;;;;14.73;12.30;;;;;;;9.67;73.46;93433.44;523037;28;841;-69
2024/03/11 00:11:28;;;;;;;14.00;12.20;;;;;;;9.65;73.22;93436.75;523279;28;793;-70
2024/03/11 00:11:48;;;;;;;14.85;12.52;;;;;;;9.65;73.34;93433.22;523206;28;820;-70
2024/03/11 00:12:05;;;;;;;15.52;12.25;;;;;;;9.64;73.23;93435.25;523131;28;1051;-70
2024/03/11 00:12:22;;;;;;;13.77;11.55;;;;;;;9.65;73.34;93436.00;523173;28;901;-70
2024/03/11 00:12:44;;;;;;;14.02;11.73;;;;;;;9.62;73.54;93435.06;523189;28;808;-69
2024/03/11 00:13:00;;;;;;;16.35;12.43;;;;;;;9.60;73.50;93432.09;523220;28;919;-70
2024/03/11 00:13:17;;;;;;;16.13;12.68;;;;;;;9.58;73.49;93440.19;523190;28;907;-70
2024/03/11 00:13:33;;;;;;;16.35;12.98;;;;;;;9.57;73.55;93437.97;522978;28;2263;-70
2024/03/11 00:13:50;;;;;;;16.52;12.57;;;;;;;9.57;73.41;93435.94;523085;28;867;-70
2024/03/11 00:14:06;;;;;;;17.15;12.65;;;;;;;9.58;73.62;93433.94;523120;28;808;-70
2024/03/11 00:14:33;;;;;;;15.80;12.57;;;;;;;9.54;73.86;93436.28;523023;28;934;-69
2024/03/11 00:14:51;;;;;;;16.88;13.07;;;;;;;9.52;73.73;93434.09;522961;28;904;-70
2024/03/11 00:15:07;;;;;;;16.73;12.35;;;;;;;9.53;73.99;93441.06;522924;28;847;-69
2024/03/11 00:15:23;;;;;;;16.77;12.73;;;;;;;9.56;73.96;93436.47;522931;28;906;-69
2024/03/11 00:15:39;;;;;;;16.88;13.00;;;;;;;9.57;73.68;93438.69;523072;28;903;-70
2024/03/11 00:15:55;;;;;;;16.50;12.52;;;;;;;9.57;73.85;93435.94;522980;28;1067;-70
2024/03/11 00:16:12;;;;;;;16.30;12.73;;;;;;;9.60;74.05;93440.38;522969;28;831;-69
2024/03/11 00:16:30;;;;;;;15.50;12.73;;;;;;;9.63;73.77;93435.81;523120;28;958;-70
2024/03/11 00:16:46;;;;;;;15.93;13.00;;;;;;;9.67;73.90;93436.19;523134;28;827;-71
2024/03/11 00:17:05;;;;;;;16.55;12.65;;;;;;;9.65;73.84;93439.50;522994;28;899;-70
2024/03/11 00:17:21;;;;;;;16.50;12.77;;;;;;;9.65;73.82;93433.22;520889;28;887;-70
2024/03/11 00:17:37;;;;;;;15.98;12.85;;;;;;;9.66;73.54;93432.69;521001;28;824;-70
2024/03/11 00:17:53;;;;;;;16.10;12.37;;;;;;;9.66;73.75;93437.44;520978;28;1046;-70
2024/03/11 00:18:09;;;;;;;16.67;12.38;;;;;;;9.62;73.68;93437.81;521041;28;899;-70
2024/03/11 00:18:25;;;;;;;14.70;12.40;;;;;;;9.61;73.74;93435.59;520991;28;856;-70
2024/03/11 00:18:41;;;;;;;13.77;12.37;;;;;;;9.62;73.89;93443.31;520864;28;833;-70
2024/03/11 00:18:56;;;;;;;14.27;12.20;;;;;;;9.64;73.75;93440.00;520909;28;860;-69
2024/03/11 00:19:12;;;;;;;15.23;12.40;;;;;;;9.63;73.91;93444.81;521039;28;852;-70
2024/03/11 00:19:28;;;;;;;15.63;12.83;;;;;;;9.62;73.45;93437.06;520993;28;812;-70
2024/03/11 00:19:44;;;;;;;15.13;12.50;;;;;;;9.59;73.71;93438.91;520958;28;847;-70
2024/03/11 00:19:59;;;;;;;15.00;12.23;;;;;;;9.58;73.61;93450.47;520915;28;927;-70
2024/03/11 00:20:15;;;;;;;16.77;13.17;;;;;;;9.56;73.87;93447.50;520914;28;844;-70
2024/03/11 00:20:30;;;;;;;17.70;13.45;;;;;;;9.57;73.40;93440.72;520627;28;825;-70
2024/03/11 00:20:46;;;;;;;16.00;12.30;;;;;;;9.56;73.43;93448.25;520944;28;757;-70
2024/03/11 00:21:01;;;;;;;14.68;11.88;;;;;;;9.54;73.64;93447.31;521004;28;804;-70
2024/03/11 00:21:17;;;;;;;15.30;12.33;;;;;;;9.45;73.74;93439.53;520991;28;908;-70
2024/03/11 00:21:32;;;;;;;15.80;12.43;;;;;;;9.40;73.91;93440.44;520907;28;844;-70
2024/03/11 00:21:58;;;;;;;15.50;12.30;;;;;;;9.39;74.14;93436.19;520955;28;750;-70
2024/03/11 00:22:13;;;;;;;15.95;12.63;;;;;;;9.39;74.32;93436.19;520906;28;875;-70
2024/03/11 00:22:29;;;;;;;16.30;12.77;;;;;;;9.42;74.43;93435.13;520979;28;837;-70
2024/03/11 00:22:45;;;;;;;15.90;12.45;;;;;;;9.24;74.34;93406.53;520982;28;828;-70
2024/03/11 00:23:00;;;;;;;15.50;12.53;;;;;;;9.45;74.14;93437.53;520896;28;781;-70
2024/03/11 00:23:16;;;;;;;14.73;12.13;;;;;;;9.46;74.08;93430.75;520995;28;816;-69
2024/03/11 00:23:31;;;;;;;14.60;11.65;;;;;;;9.47;74.07;93431.47;520995;28;804;-70
2024/03/11 00:23:47;;;;;;;15.13;11.73;;;;;;;9.42;74.31;93437.88;520937;28;829;-69
2024/03/11 00:24:02;;;;;;;14.95;11.98;;;;;;;9.39;74.34;93433.44;521064;28;855;-70
2024/03/11 00:24:18;;;;;;;14.83;11.87;;;;;;;9.37;74.47;93431.25;520821;28;820;-70
2024/03/11 00:24:34;;;;;;;15.95;12.05;;;;;;;9.38;74.22;93434.72;520966;28;800;-70
2024/03/11 00:24:49;;;;;;;15.70;12.18;;;;;;;9.39;74.14;93433.44;520951;28;923;-70
2024/03/11 00:25:06;;;;;;;14.43;12.17;;;;;;;9.38;74.04;93432.69;521000;28;832;-70
2024/03/11 00:25:21;;;;;;;14.60;12.02;;;;;;;9.38;74.15;93435.44;521047;28;966;-70
2024/03/11 00:25:37;;;;;;;16.08;12.25;;;;;;;9.36;74.67;93435.25;520894;28;793;-70
2024/03/11 00:25:52;;;;;;;15.68;12.38;;;;;;;9.36;74.55;93431.75;520944;28;856;-70
2024/03/11 00:26:08;;;;;;;15.57;12.00;;;;;;;9.36;74.36;93427.00;520988;28;761;-70
2024/03/11 00:26:24;;;;;;;15.52;11.73;;;;;;;9.39;74.36;93430.69;521002;28;816;-70
2024/03/11 00:26:40;;;;;;;15.55;11.95;;;;;;;9.38;74.22;93440.22;520956;28;829;-70
2024/03/11 00:26:56;;;;;;;16.95;12.43;;;;;;;9.37;74.53;93431.25;520998;28;769;-70
2024/03/11 00:27:11;;;;;;;16.63;12.38;;;;;;;9.40;74.40;93432.19;520912;28;820;-70
2024/03/11 00:27:27;;;;;;;15.30;12.03;;;;;;;9.39;74.42;93425.19;520939;28;753;-69
2024/03/11 00:27:42;;;;;;;15.73;12.07;;;;;;;9.36;74.14;93426.25;520961;28;876;-70
2024/03/11 00:27:59;;;;;;;15.85;12.20;;;;;;;9.36;74.42;93429.00;520866;28;888;-70
2024/03/11 00:28:14;;;;;;;15.02;12.23;;;;;;;9.35;74.48;93431.03;520961;28;1981;-70
2024/03/11 00:28:30;;;;;;;14.10;11.98;;;;;;;9.37;74.38;93433.25;520868;28;876;-70
2024/03/11 00:28:45;;;;;;;14.68;11.52;;;;;;;9.39;74.44;93430.69;520987;28;792;-70
2024/03/11 00:29:03;;;;;;;15.17;11.70;;;;;;;9.40;74.40;93424.63;520885;28;892;-69
2024/03/11 00:29:19;;;;;;;15.57;12.35;;;;;;;9.40;74.36;93430.13;520911;28;816;-70
2024/03/11 00:29:35;;;;;;;16.05;12.38;;;;;;;9.39;74.52;93425.19;521084;28;820;-69
2024/03/11 00:29:50;;;;;;;15.83;11.93;;;;;;;9.40;74.27;93421.16;520858;28;879;-69
2024/03/11 00:30:11;;;;;;;15.70;12.02;;;;;;;9.41;74.27;93431.63;521073;28;772;-70
2024/03/11 00:30:26;;;;;;;14.45;12.02;;;;;;;9.44;74.23;93421.53;521858;28;923;-70
2024/03/11 00:30:42;;;;;;;14.25;11.75;;;;;;;9.47;74.16;93417.69;521108;28;837;-70
2024/03/11 00:30:57;;;;;;;15.10;11.83;;;;;;;9.49;74.15;93418.63;521118;28;749;-70
2024/03/11 00:31:13;;;;;;;14.90;12.27;;;;;;;9.49;73.97;93415.13;521035;28;808;-70
2024/03/11 00:31:29;;;;;;;14.37;12.10;;;;;;;9.50;73.77;93422.13;521107;28;773;-70
2024/03/11 00:31:45;;;;;;;16.00;12.75;;;;;;;9.51;73.83;93420.81;521101;28;884;-70
2024/03/11 00:32:02;;;;;;;16.58;13.30;;;;;;;9.51;73.75;93421.56;521080;28;844;-69
2024/03/11 00:32:19;;;;;;;16.05;13.02;;;;;;;9.50;73.72;93425.63;521020;28;888;-70
2024/03/11 00:32:36;;;;;;;16.95;13.00;;;;;;;9.44;73.75;93416.03;521070;28;813;-70
2024/03/11 00:32:52;;;;;;;17.02;13.45;;;;;;;9.42;73.60;93415.84;521130;28;833;-70
2024/03/11 00:33:09;;;;;;;16.95;13.48;;;;;;;9.42;74.08;93421.34;521152;28;856;-70
2024/03/11 00:33:26;;;;;;;17.10;13.23;;;;;;;9.42;74.04;93413.78;521083;28;856;-69
2024/03/11 00:33:42;;;;;;;14.57;12.38;;;;;;;9.42;74.00;93419.31;520977;28;946;-70
2024/03/11 00:33:58;;;;;;;14.80;12.13;;;;;;;9.26;73.82;93401.22;521071;28;841;-70
2024/03/11 00:34:14;;;;;;;15.60;12.57;;;;;;;9.40;73.83;93421.88;521068;28;891;-70
2024/03/11 00:34:29;;;;;;;16.30;13.47;;;;;;;9.41;73.90;93417.84;521087;28;753;-69
2024/03/11 00:34:45;;;;;;;16.77;13.35;;;;;;;9.36;74.41;93413.22;521228;28;777;-69
2024/03/11 00:35:01;;;;;;;15.93;12.63;;;;;;;9.35;74.11;93413.75;521029;28;778;-70
2024/03/11 00:35:16;;;;;;;15.50;12.68;;;;;;;9.36;74.36;93415.22;521090;28;820;-70
2024/03/11 00:35:32;;;;;;;14.65;12.27;;;;;;;9.37;74.18;93414.69;521069;28;761;-69
2024/03/11 00:35:48;;;;;;;14.48;12.02;;;;;;;9.36;74.54;93409.72;521066;28;1185;-70
2024/03/11 00:36:03;;;;;;;15.77;12.80;;;;;;;9.36;74.58;93415.22;521152;28;892;-70
2024/03/11 00:36:20;;;;;;;15.25;12.70;;;;;;;9.37;74.35;93416.72;521132;28;890;-70
2024/03/11 00:36:37;;;;;;;16.65;12.18;;;;;;;9.38;74.20;93418.91;521180;28;900;-70
2024/03/11 00:36:52;;;;;;;17.17;12.52;;;;;;;9.38;74.07;93413.41;521026;28;911;-69
2024/03/11 00:37:12;;;;;;;15.43;12.60;;;;;;;9.39;73.88;93405.88;521153;28;849;-70
2024/03/11 00:37:27;;;;;;;15.68;12.77;;;;;;;9.41;73.90;93417.84;521079;28;848;-70
2024/03/11 00:37:44;;;;;;;17.17;13.35;;;;;;;9.38;74.23;93413.41;521133;28;777;-70
2024/03/11 00:37:59;;;;;;;16.80;12.90;;;;;;;9.39;73.96;93408.66;521026;28;828;-70
2024/03/11 00:38:14;;;;;;;15.33;11.83;;;;;;;9.39;73.96;93411.41;521086;28;844;-69
2024/03/11 00:38:30;;;;;;;15.85;12.15;;;;;;;9.41;73.93;93412.34;521064;28;770;-70
2024/03/11 00:38:45;;;;;;;16.43;12.43;;;;;;;9.43;74.09;93409.78;521172;28;826;-70
2024/03/11 00:39:01;;;;;;;16.13;12.27;;;;;;;9.40;73.77;93416.34;520979;28;809;-70
2024/03/11 00:39:17;;;;;;;14.90;11.90;;;;;;;9.43;74.18;93414.53;521035;28;825;-70
2024/03/11 00:39:34;;;;;;;15.03;12.33;;;;;;;9.44;74.27;93410.53;521064;28;828;-70
2024/03/11 00:39:49;;;;;;;15.40;12.75;;;;;;;9.44;74.02;93405.72;521106;28;883;-70
2024/03/11 00:40:06;;;;;;;15.47;12.63;;;;;;;9.45;74.08;93409.97;521111;28;846;-70
2024/03/11 00:40:23;;;;;;;16.38;12.98;;;;;;;9.45;73.92;93406.47;521103;28;868;-70
2024/03/11 00:40:39;;;;;;;15.90;12.70;;;;;;;9.42;74.14;93408.28;521053;28;989;-70
2024/03/11 00:40:55;;;;;;;14.98;12.10;;;;;;;9.42;73.69;93408.28;520996;28;768;-70
2024/03/11 00:41:11;;;;;;;16.13;12.75;;;;;;;9.37;73.94;93405.69;520988;28;916;-70
2024/03/11 00:41:27;;;;;;;16.58;12.80;;;;;;;9.35;74.36;93409.00;521103;28;761;-70
2024/03/11 00:41:43;;;;;;;16.30;12.75;;;;;;;9.35;74.50;93405.50;521109;28;836;-70
2024/03/11 00:41:58;;;;;;;16.08;12.98;;;;;;;9.38;74.01;93407.91;521076;28;995;-70
2024/03/11 00:42:14;;;;;;;15.63;12.25;;;;;;;9.39;74.27;93409.38;521101;28;799;-70
2024/03/11 00:42:33;;;;;;;16.47;12.90;;;;;;;9.42;74.34;93407.56;521049;28;866;-70
2024/03/11 00:42:51;;;;;;;17.98;13.55;;;;;;;9.42;73.89;93411.03;520939;28;914;-70
2024/03/11 00:43:08;;;;;;;17.13;13.18;;;;;;;9.43;74.13;93409.03;521123;28;828;-70
2024/03/11 00:43:24;;;;;;;15.93;13.18;;;;;;;9.39;74.16;93408.66;521120;28;852;-70
2024/03/11 00:43:42;;;;;;;16.00;13.57;;;;;;;9.38;74.30;93412.66;521023;28;789;-70
2024/03/11 00:43:58;;;;;;;18.02;13.45;;;;;;;9.28;74.10;93389.66;520891;28;1068;-70
2024/03/11 00:44:13;;;;;;;17.23;13.02;;;;;;;9.38;74.31;93407.91;521054;28;797;-70
2024/03/11 00:44:29;;;;;;;16.90;13.13;;;;;;;9.37;73.90;93406.44;521403;28;1141;-70
2024/03/11 00:44:48;;;;;;;15.88;12.93;;;;;;;9.37;74.09;93411.22;523128;28;1043;-70
2024/03/11 00:45:10;;;;;;;16.30;13.13;;;;;;;9.36;74.15;93410.47;523072;28;836;-70
2024/03/11 00:45:25;;;;;;;18.85;12.80;;;;;;;9.37;74.07;93411.94;523118;28;946;-69
2024/03/11 00:45:41;;;;;;;16.40;12.40;;;;;;;9.35;74.55;93413.75;523054;28;800;-69
2024/03/11 00:45:57;;;;;;;16.55;13.00;;;;;;;9.33;74.57;93408.81;523136;28;753;-70
2024/03/11 00:46:12;;;;;;;17.52;13.35;;;;;;;9.33;74.59;93405.31;523170;28;796;-70
2024/03/11 00:46:29;;;;;;;17.23;13.23;;;;;;;9.35;74.31;93413.75;523047;28;880;-70
2024/03/11 00:46:46;;;;;;;18.65;13.82;;;;;;;9.36;74.66;93404.94;523093;28;996;-70
2024/03/11 00:47:02;;;;;;;19.52;13.57;;;;;;;9.35;74.67;93408.25;523073;28;820;-69
2024/03/11 00:47:18;;;;;;;18.63;13.32;;;;;;;9.34;74.64;93404.75;523088;28;820;-70
2024/03/11 00:47:34;;;;;;;18.25;13.48;;;;;;;9.36;74.48;93409.72;523001;28;1171;-69
2024/03/11 00:47:50;;;;;;;17.60;13.05;;;;;;;9.36;74.29;93412.47;522920;28;1097;-69
2024/03/11 00:48:10;;;;;;;16.88;12.82;;;;;;;9.38;74.60;93409.91;523067;28;1983;-70
2024/03/11 00:48:27;;;;;;;15.88;13.00;;;;;;;9.37;74.39;93416.72;523137;28;828;-69
2024/03/11 00:48:43;;;;;;;16.30;12.85;;;;;;;9.37;74.66;93411.94;523164;28;828;-70
2024/03/11 00:48:59;;;;;;;18.23;12.82;;;;;;;9.36;74.25;93410.47;523048;28;821;-69
2024/03/11 00:49:15;;;;;;;17.47;13.40;;;;;;;9.37;74.65;93411.94;523109;28;776;-70
2024/03/11 00:49:31;;;;;;;16.17;13.13;;;;;;;9.39;74.26;93414.16;523167;28;888;-70
2024/03/11 00:49:48;;;;;;;16.33;13.20;;;;;;;9.39;74.32;93417.66;523155;28;1014;-70
2024/03/11 00:50:06;;;;;;;16.60;13.50;;;;;;;9.42;74.65;93413.09;523171;28;793;-69
2024/03/11 00:50:22;;;;;;;17.65;13.63;;;;;;;9.40;74.29;93416.34;523086;28;828;-69
2024/03/11 00:50:37;;;;;;;18.27;13.70;;;;;;;9.42;74.29;93416.56;523080;28;780;-70
2024/03/11 00:50:53;;;;;;;19.25;14.23;;;;;;;9.43;74.25;93412.53;523156;28;757;-70
2024/03/11 00:51:09;;;;;;;18.55;13.98;;;;;;;9.47;74.26;93423.19;523153;28;895;-70
2024/03/11 00:51:25;;;;;;;18.27;13.82;;;;;;;9.24;74.26;93381.00;523227;28;880;-70
2024/03/11 00:51:41;;;;;;;18.63;13.95;;;;;;;9.34;74.32;93407.50;523105;28;769;-70
2024/03/11 00:51:56;;;;;;;17.90;14.10;;;;;;;9.48;74.28;93422.69;523075;28;797;-70
2024/03/11 00:52:12;;;;;;;17.00;14.17;;;;;;;9.51;74.11;93418.06;523132;28;752;-70
2024/03/11 00:52:27;;;;;;;16.43;13.47;;;;;;;9.51;74.13;93423.59;523164;28;776;-70
2024/03/11 00:52:43;;;;;;;17.85;13.32;;;;;;;9.46;74.02;93413.47;523098;28;823;-70
2024/03/11 00:53:00;;;;;;;19.20;14.07;;;;;;;9.53;73.82;93421.06;523084;28;852;-70
2024/03/11 00:53:15;;;;;;;17.98;13.60;;;;;;;9.53;73.91;93421.06;523187;28;801;-70
2024/03/11 00:53:30;;;;;;;18.13;13.43;;;;;;;9.53;73.97;93419.00;523059;28;752;-69
2024/03/11 00:53:46;;;;;;;18.27;13.93;;;;;;;9.47;74.31;93421.19;523091;28;765;-70
2024/03/11 00:54:01;;;;;;;17.67;13.43;;;;;;;9.40;74.06;93419.13;523089;28;856;-70
2024/03/11 00:54:17;;;;;;;17.48;13.13;;;;;;;9.35;74.30;93422.03;523092;28;745;-70
2024/03/11 00:54:32;;;;;;;16.93;13.00;;;;;;;9.33;74.70;93419.09;523093;28;844;-70
2024/03/11 00:54:48;;;;;;;17.73;13.57;;;;;;;9.31;74.77;93422.38;523043;28;788;-69
2024/03/11 00:55:06;;;;;;;18.17;14.30;;;;;;;9.32;74.83;93425.84;523090;28;891;-70
2024/03/11 00:55:22;;;;;;;17.25;14.15;;;;;;;9.31;74.76;93421.63;523072;28;902;-70
2024/03/11 00:55:38;;;;;;;18.00;14.00;;;;;;;9.29;74.87;93429.72;523088;28;771;-70
2024/03/11 00:55:54;;;;;;;16.85;13.15;;;;;;;9.23;75.06;93429.84;523060;28;839;-70
2024/03/11 00:56:09;;;;;;;16.43;13.63;;;;;;;9.18;74.95;93428.00;522829;28;851;-70
2024/03/11 00:56:26;;;;;;;16.45;14.07;;;;;;;9.04;75.41;93430.09;520937;28;904;-70
2024/03/11 00:56:42;;;;;;;17.73;13.68;;;;;;;8.97;75.87;93430.75;520922;28;881;-70
2024/03/11 00:56:58;;;;;;;18.33;13.30;;;;;;;8.96;76.24;93429.28;520901;28;820;-70
2024/03/11 00:57:14;;;;;;;17.00;12.80;;;;;;;8.93;76.33;93435.88;520975;28;823;-69
2024/03/11 00:57:32;;;;;;;16.75;12.90;;;;;;;8.90;76.47;93430.72;520896;28;887;-70
2024/03/11 00:57:48;;;;;;;15.40;12.45;;;;;;;8.96;76.32;93432.03;520853;28;895;-70
2024/03/11 00:58:06;;;;;;;16.30;12.65;;;;;;;8.93;76.33;93430.34;522158;28;879;-70
2024/03/11 00:58:21;;;;;;;16.70;13.30;;;;;;;8.93;76.83;93421.34;523067;28;918;-70
2024/03/11 00:58:37;;;;;;;15.90;13.10;;;;;;;8.92;76.74;93422.66;523131;28;784;-70
2024/03/11 00:58:52;;;;;;;14.67;12.53;;;;;;;8.93;77.12;93438.63;523097;28;820;-69
2024/03/11 00:59:09;;;;;;;15.45;12.57;;;;;;;8.95;76.78;93435.31;522971;28;847;-70
2024/03/11 00:59:25;;;;;;;16.65;12.82;;;;;;;8.92;76.47;93428.16;523170;28;839;-70
2024/03/11 00:59:40;;;;;;;16.87;12.90;;;;;;;8.93;76.76;93435.13;523122;28;820;-69
2024/03/11 00:59:56;;;;;;;16.63;12.55;;;;;;;8.93;76.74;93430.34;523144;28;816;-71
2024/03/11 01:00:12;;;;;;;15.90;12.40;;;;;;;8.92;76.79;93436.41;523105;28;784;-70
2024/03/11 01:00:28;;;;;;;15.57;12.60;;;;;;;8.95;76.75;93438.06;523053;28;843;-70
2024/03/11 01:00:43;;;;;;;16.45;12.63;;;;;;;8.94;76.90;93442.13;523109;28;879;-69
2024/03/11 01:00:58;;;;;;;17.63;12.93;;;;;;;8.95;76.72;93443.56;523082;28;808;-71
2024/03/11 01:01:14;;;;;;;18.52;13.27;;;;;;;8.79;76.69;93411.72;523458;28;780;-70
2024/03/11 01:01:30;;;;;;;18.37;13.10;;;;;;;8.91;76.74;93438.41;523192;28;836;-70
2024/03/11 01:01:46;;;;;;;16.90;13.23;;;;;;;8.89;76.72;93435.47;523469;28;788;-71
2024/03/11 01:02:02;;;;;;;17.15;12.82;;;;;;;8.86;76.92;93431.03;523276;28;918;-70
2024/03/11 01:02:17;;;;;;;18.33;12.45;;;;;;;8.84;77.22;93435.59;523280;28;899;-71
2024/03/11 01:02:33;;;;;;;17.90;12.63;;;;;;;8.82;77.32;93435.38;523280;28;745;-71
2024/03/11 01:02:52;;;;;;;16.10;12.20;;;;;;;8.83;77.40;93437.63;523275;28;910;-70
2024/03/11 01:03:09;;;;;;;14.38;11.90;;;;;;;8.84;77.51;93438.34;523122;28;882;-70
2024/03/11 01:03:24;;;;;;;15.50;12.63;;;;;;;8.81;77.46;93434.69;523507;28;840;-71
2024/03/11 01:03:40;;;;;;;16.63;13.30;;;;;;;8.77;77.44;93431.50;523347;28;761;-70
2024/03/11 01:03:55;;;;;;;16.08;13.07;;;;;;;8.81;77.76;93433.94;523336;28;851;-70
2024/03/11 01:04:11;;;;;;;14.93;12.52;;;;;;;8.78;77.70;93430.22;523437;28;863;-72
2024/03/11 01:04:27;;;;;;;15.67;12.57;;;;;;;8.80;77.68;93432.44;523216;28;752;-70
2024/03/11 01:04:45;;;;;;;16.30;12.68;;;;;;;8.82;77.46;93436.13;523324;28;863;-70
2024/03/11 01:05:00;;;;;;;17.35;12.70;;;;;;;8.85;77.20;93435.06;522980;28;844;-70
2024/03/11 01:05:16;;;;;;;16.03;12.00;;;;;;;8.88;77.24;93425.72;523256;28;893;-69
2024/03/11 01:05:32;;;;;;;14.27;11.35;;;;;;;8.87;76.98;93431.78;523272;28;864;-70
2024/03/11 01:05:49;;;;;;;15.80;11.85;;;;;;;8.87;77.06;93434.53;523170;28;840;-70
2024/03/11 01:06:05;;;;;;;16.15;12.25;;;;;;;8.86;76.89;93431.03;523197;28;824;-69
2024/03/11 01:06:21;;;;;;;14.23;11.45;;;;;;;8.86;77.21;93436.53;523213;28;875;-69
2024/03/11 01:06:36;;;;;;;15.07;12.00;;;;;;;8.88;77.12;93431.22;523354;28;856;-70
2024/03/11 01:06:52;;;;;;;14.93;12.00;;;;;;;8.90;76.71;93430.72;523679;28;744;-70
2024/03/11 01:07:09;;;;;;;15.90;11.77;;;;;;;8.92;76.65;93437.13;523964;28;1014;-69
2024/03/11 01:07:25;;;;;;;15.82;11.90;;;;;;;8.95;76.75;93438.06;523905;28;898;-70
2024/03/11 01:07:41;;;;;;;16.33;11.80;;;;;;;8.75;76.42;93405.81;523750;28;1037;-71
2024/03/11 01:07:56;;;;;;;16.15;11.90;;;;;;;8.99;76.22;93438.47;523949;28;1037;-72
2024/03/11 01:08:11;;;;;;;15.97;11.77;;;;;;;8.99;76.33;93441.97;523737;28;1959;-70
2024/03/11 01:08:29;;;;;;;15.60;11.50;;;;;;;8.98;76.29;93434.25;523822;28;844;-70
2024/03/11 01:08:44;;;;;;;15.23;12.07;;;;;;;9.02;75.97;93437.41;523909;28;756;-71
2024/03/11 01:09:00;;;;;;;15.80;12.37;;;;;;;9.01;76.21;93435.91;523704;28;761;-70
2024/03/11 01:09:20;;;;;;;15.60;12.07;;;;;;;9.01;76.28;93442.16;523608;28;863;-70
2024/03/11 01:09:35;;;;;;;14.18;11.60;;;;;;;9.04;75.98;93443.84;523759;28;831;-71
2024/03/11 01:09:51;;;;;;;14.30;11.60;;;;;;;9.00;76.26;93442.72;523942;28;807;-71
2024/03/11 01:10:07;;;;;;;15.20;12.30;;;;;;;8.95;75.96;93441.56;523556;28;927;-70
2024/03/11 01:10:23;;;;;;;15.18;12.68;;;;;;;8.94;76.24;93447.63;523396;28;788;-70
2024/03/11 01:10:39;;;;;;;14.73;12.10;;;;;;;8.95;76.48;93449.09;523439;28;887;-70
2024/03/11 01:10:55;;;;;;;15.45;12.25;;;;;;;8.96;76.41;93445.06;523277;28;911;-69
2024/03/11 01:11:10;;;;;;;16.35;13.05;;;;;;;8.98;76.25;93448.75;523361;28;903;-69
2024/03/11 01:11:26;;;;;;;15.33;12.73;;;;;;;8.95;76.42;93444.31;523133;28;808;-70
2024/03/11 01:11:41;;;;;;;15.68;12.32;;;;;;;9.01;76.25;93446.94;523115;28;761;-70
2024/03/11 01:11:57;;;;;;;17.03;12.30;;;;;;;9.02;76.35;93454.66;523226;28;824;-70
2024/03/11 01:12:12;;;;;;;18.87;13.03;;;;;;;8.73;75.95;93403.56;523073;28;1021;-70
2024/03/11 01:12:28;;;;;;;18.35;12.77;;;;;;;9.01;76.03;93446.94;522909;28;808;-70
2024/03/11 01:12:43;;;;;;;16.50;12.27;;;;;;;9.01;76.06;93444.91;522964;28;815;-70
2024/03/11 01:12:59;;;;;;;15.40;12.38;;;;;;;9.01;76.36;93450.44;522946;28;812;-70
2024/03/11 01:13:14;;;;;;;14.87;12.00;;;;;;;9.03;76.03;93453.38;522961;28;792;-70
2024/03/11 01:13:30;;;;;;;14.68;11.73;;;;;;;9.06;76.08;93449.56;522937;28;840;-70
2024/03/11 01:13:45;;;;;;;14.63;12.07;;;;;;;9.07;76.10;93445.50;522979;28;812;-70
2024/03/11 01:14:01;;;;;;;14.20;11.90;;;;;;;9.07;75.97;93453.06;522878;28;879;-70
2024/03/11 01:14:18;;;;;;;13.77;12.05;;;;;;;9.05;76.07;93445.31;522820;28;866;-70
2024/03/11 01:14:34;;;;;;;15.13;12.53;;;;;;;9.03;76.05;93445.13;522966;28;792;-70
2024/03/11 01:14:51;;;;;;;16.60;12.90;;;;;;;9.02;76.07;93446.41;523006;28;796;-70
2024/03/11 01:15:07;;;;;;;16.25;13.07;;;;;;;9.01;76.18;93441.41;523012;28;865;-70
2024/03/11 01:15:22;;;;;;;16.33;12.47;;;;;;;8.98;75.98;93448.75;522885;28;843;-70
2024/03/11 01:15:38;;;;;;;16.23;12.90;;;;;;;8.98;76.31;93445.25;522952;28;800;-70
2024/03/11 01:15:53;;;;;;;15.77;12.70;;;;;;;8.99;76.14;93449.47;522729;28;840;-69
2024/03/11 01:16:10;;;;;;;16.17;12.23;;;;;;;9.00;76.09;93437.94;522782;28;805;-70
2024/03/11 01:16:25;;;;;;;17.27;12.63;;;;;;;8.82;76.34;93407.84;522799;28;943;-70
2024/03/11 01:16:41;;;;;;;16.85;12.43;;;;;;;9.04;76.29;93441.09;522679;28;808;-70
2024/03/11 01:16:56;;;;;;;17.02;12.35;;;;;;;9.06;75.91;93446.81;522675;28;773;-70
2024/03/11 01:17:12;;;;;;;18.80;12.40;;;;;;;9.08;76.12;93441.50;522691;28;1097;-69
2024/03/11 01:17:27;;;;;;;18.97;12.50;;;;;;;9.09;75.71;93442.97;522802;28;812;-70
2024/03/11 01:17:44;;;;;;;15.52;12.15;;;;;;;9.11;75.63;93445.19;522828;28;792;-70
2024/03/11 01:18:00;;;;;;;15.18;12.25;;;;;;;9.13;75.59;93442.63;522904;28;820;-70
2024/03/11 01:18:16;;;;;;;15.50;12.53;;;;;;;9.15;75.70;93440.06;522978;28;830;-71
2024/03/11 01:18:31;;;;;;;15.43;12.48;;;;;;;9.15;75.78;93432.56;522896;28;812;-70